D/T METAR WX W/DIR W/SPE G/SPE TEMP DEWP
20/06/19 16:50 EGPU 201550Z 26015KT 9999 SCT018 12/08 Q1008 W (260°) 17.3mph 12°C 8°C
20/06/19 16:20 EGPU 201520Z 26016KT 9999 FEW018 BKN049 12/08 Q1008 W (260°) 18.4mph 12°C 8°C
20/06/19 15:50 EGPU 201450Z 26015KT 9999 VCSH SCT018 BKN049 12/09 Q1008 VCSH W (260°) 17.3mph 12°C 9°C
20/06/19 15:20 EGPU 201420Z 27018KT 9999 -SHRA SCT018 SCT034 12/08 Q1008 -SHRA W (270°) 20.7mph 12°C 8°C
20/06/19 14:50 EGPU 201350Z 28016KT 9999 FEW018 SCT032 13/09 Q1007 W (280°) 18.4mph 13°C 9°C
20/06/19 14:20 EGPU 201320Z 27016KT 9999 FEW021 SCT039 13/09 Q1007 W (270°) 18.4mph 13°C 9°C
20/06/19 13:50 EGPU 201250Z 28017KT 9999 FEW018 BKN037 13/09 Q1007 W (280°) 19.6mph 13°C 9°C
20/06/19 13:20 EGPU 201220Z AUTO 27018KT 170V240 9999 FEW016/// SCT034/// 13/10 Q1007 RERA W (270°) 20.7mph 13°C 10°C
20/06/19 12:50 EGPU 201150Z AUTO 27014KT 180V240 9999 -RADZ SCT016/// SCT033/// BKN048/// 12/09 Q1007 -RA -DZ W (270°) 16.1mph 12°C 9°C
20/06/19 12:20 EGPU 201120Z 27016KT 9999 VCSH FEW017 SCT034 13/10 Q1006 VCSH W (270°) 18.4mph 13°C 10°C
20/06/19 11:50 EGPU 201050Z 25014KT 9999 -SHRA FEW013 SCT023 11/09 Q1006 -SHRA WSW (250°) 16.1mph 11°C 9°C
20/06/19 11:20 EGPU 201020Z 27014KT 170V240 9999 VCSH BKN045 11/09 Q1006 VCSH W (270°) 16.1mph 11°C 9°C
20/06/19 10:50 EGPU 200950Z 28017KT 180V240 9999 BKN042 12/09 Q1005 W (280°) 19.6mph 12°C 9°C
20/06/19 10:20 EGPU 200920Z 29017KT 9999 VCSH FEW015 SCT049 13/09 Q1005 VCSH WNW (290°) 19.6mph 13°C 9°C
20/06/19 09:50 EGPU 200850Z 29014KT 9999 VCSH FEW014 SCT048 11/09 Q1005 VCSH WNW (290°) 16.1mph 11°C 9°C
20/06/19 09:20 EGPU 200820Z 28015KT 9000 -SHRA FEW014 SCT039 12/09 Q1004 -SHRA W (280°) 17.3mph 12°C 9°C
20/06/19 08:50 EGPU 200750Z 27014KT 180V240 9999 VCSH FEW014 SCT019 12/10 Q1004 VCSH W (270°) 16.1mph 12°C 10°C
20/06/19 08:20 EGPU 200720Z AUTO 25015KT 150V210 9999 RA FEW034/// 10/09 Q1004 RA WSW (250°) 17.3mph 10°C 9°C
20/06/19 07:50 EGPU 200650Z AUTO 26016KT 9999 FEW011/// BKN044/// 11/10 Q1004 W (260°) 18.4mph 11°C 10°C
20/06/19 07:20 EGPU 200620Z AUTO 25017KT 9999 FEW039/// 10/09 Q1003 RERA WSW (250°) 19.6mph 10°C 9°C
20/06/19 06:50 EGPU 200550Z AUTO 24015KT 9999 FEW011/// BKN037/// 10/09 Q1003 RERA WSW (240°) 17.3mph 10°C 9°C
20/06/19 06:20 EGPU 200520Z AUTO 25014KT 150V220 9999 -RA BKN037/// 10/08 Q1003 -RA WSW (250°) 16.1mph 10°C 8°C
20/06/19 05:50 EGPU 200450Z AUTO 24012KT 150V210 9999 FEW018/// 10/08 Q1003 WSW (240°) 13.8mph 10°C 8°C
20/06/19 05:20 EGPU 200420Z AUTO 24011KT 9999 FEW016/// 09/08 Q1003 RERA WSW (240°) 12.7mph 9°C 8°C
20/06/19 04:50 EGPU 200350Z AUTO 24012KT 150V210 9999 SCT017/// 09/08 Q1003 RERA WSW (240°) 13.8mph 9°C 8°C
20/06/19 04:20 EGPU 200320Z AUTO 24009KT 9999 FEW016/// SCT042/// 09/08 Q1003 RERA WSW (240°) 10.4mph 9°C 8°C
20/06/19 03:50 EGPU 200250Z AUTO 24012KT 3700 RA FEW020/// SCT048/// 09/07 Q1004 RA WSW (240°) 13.8mph 9°C 7°C
20/06/19 03:20 EGPU 200220Z AUTO 24010KT 140V200 9999 FEW020/// SCT046/// 09/07 Q1003 WSW (240°) 11.5mph 9°C 7°C
20/06/19 02:50 EGPU 200150Z AUTO 24011KT 150V210 9999 FEW019/// SCT048/// 09/07 Q1004 WSW (240°) 12.7mph 9°C 7°C
20/06/19 02:20 EGPU 200120Z AUTO 24010KT 9999 NCD 09/07 Q1004 WSW (240°) 11.5mph 9°C 7°C
20/06/19 01:50 EGPU 200050Z AUTO 25010KT 150V210 9999 FEW018/// 10/08 Q1004 WSW (250°) 11.5mph 10°C 8°C
20/06/19 01:20 EGPU 200020Z AUTO 23009KT 140V200 9999 FEW018/// 09/07 Q1004 SW (230°) 10.4mph 9°C 7°C
20/06/19 00:50 EGPU 192350Z AUTO 24009KT 9999 NCD 09/08 Q1004 WSW (240°) 10.4mph 9°C 8°C
20/06/19 00:20 EGPU 192320Z AUTO 25010KT 150V210 9999 FEW015/// 10/08 Q1004 WSW (250°) 11.5mph 10°C 8°C
19/06/19 23:50 EGPU 192250Z AUTO 23008KT 9999 FEW015/// 09/08 Q1004 RERA SW (230°) 9.2mph 9°C 8°C
19/06/19 23:20 EGPU 192220Z AUTO 23009KT 9999 NCD 10/08 Q1004 RERA SW (230°) 10.4mph 10°C 8°C
19/06/19 22:50 EGPU 192150Z AUTO 22012KT 130V190 9999 -RA NCD 10/07 Q1004 -RA SW (220°) 13.8mph 10°C 7°C
19/06/19 22:20 EGPU 192120Z AUTO 22006KT 9999 NCD 10/08 Q1004 SW (220°) 6.9mph 10°C 8°C
19/06/19 21:50 EGPU 192050Z AUTO 23009KT 150V210 9999 NCD 10/08 Q1004 RERA SW (230°) 10.4mph 10°C 8°C
19/06/19 21:20 EGPU 192020Z AUTO 23013KT 9999 NCD 11/08 Q1004 RERA SW (230°) 15.0mph 11°C 8°C
19/06/19 20:50 EGPU 191950Z AUTO 22010KT 130V190 9000 FEW031/// 12/09 Q1004 SW (220°) 11.5mph 12°C 9°C
19/06/19 20:20 EGPU 191920Z AUTO 24012KT 140V200 9999 FEW018/// 12/08 Q1004 WSW (240°) 13.8mph 12°C 8°C
19/06/19 19:50 EGPU 191850Z AUTO 22011KT 120V180 9999 SCT018/// 12/09 Q1004 SW (220°) 12.7mph 12°C 9°C
19/06/19 19:20 EGPU 191820Z AUTO 23012KT 120V200 9999 SCT018/// 13/09 Q1004 SW (230°) 13.8mph 13°C 9°C
19/06/19 18:50 EGPU 191750Z AUTO 23013KT 140V200 9999 NCD 13/09 Q1004 SW (230°) 15.0mph 13°C 9°C
19/06/19 18:20 EGPU 191720Z 24016KT 9999 FEW018 13/09 Q1004 WSW (240°) 18.4mph 13°C 9°C
19/06/19 17:50 EGPU 191650Z 23016KT 9999 FEW018 13/09 Q1004 SW (230°) 18.4mph 13°C 9°C
19/06/19 17:20 EGPU 191620Z 21014KT 9999 VCSH FEW014 SCT039 12/10 Q1004 VCSH SSW (210°) 16.1mph 12°C 10°C